createdAt,value
2023-05-23T00:02:23.240Z,16.33
2023-05-23T00:07:26.601Z,16.31
2023-05-23T00:12:29.490Z,16.24
2023-05-23T00:17:32.203Z,16.30
2023-05-23T00:22:34.974Z,16.36
2023-05-23T00:27:37.376Z,16.39
2023-05-23T00:32:39.773Z,16.42
2023-05-23T00:37:42.155Z,16.49
2023-05-23T00:42:44.519Z,16.48
2023-05-23T00:47:47.279Z,16.51
2023-05-23T00:52:49.964Z,16.49
2023-05-23T00:57:54.456Z,16.47
2023-05-23T01:02:57.104Z,16.47
2023-05-23T01:08:00.132Z,16.49
2023-05-23T01:13:04.963Z,16.56
2023-05-23T01:18:08.492Z,16.48
2023-05-23T01:23:12.192Z,16.37
2023-05-23T01:28:14.925Z,16.41
2023-05-23T01:33:17.640Z,16.34
2023-05-23T01:38:20.384Z,16.37
2023-05-23T01:43:23.116Z,16.24
2023-05-23T01:48:25.529Z,16.15
2023-05-23T01:53:28.436Z,16.19
2023-05-23T01:58:30.898Z,16.18
2023-05-23T02:03:33.691Z,16.10
2023-05-23T02:08:36.381Z,16.08
2023-05-23T02:13:38.777Z,16.09
2023-05-23T02:18:41.409Z,16.11
2023-05-23T02:23:44.280Z,16.08
2023-05-23T02:28:47.031Z,16.04
2023-05-23T02:33:49.965Z,15.93
2023-05-23T02:38:52.304Z,15.79
2023-05-23T02:43:54.650Z,15.67
2023-05-23T02:48:57.001Z,15.54
2023-05-23T02:53:59.365Z,15.40
2023-05-23T02:59:02.002Z,15.34
2023-05-23T03:04:04.487Z,15.33
2023-05-23T03:09:07.822Z,15.35
2023-05-23T03:14:10.435Z,15.26
2023-05-23T03:19:13.374Z,15.29
2023-05-23T03:24:16.195Z,15.28
2023-05-23T03:29:18.966Z,15.32
2023-05-23T03:34:24.039Z,15.33
2023-05-23T03:39:26.440Z,15.30
2023-05-23T03:44:29.140Z,15.28
2023-05-23T03:49:31.481Z,15.21
2023-05-23T03:54:34.417Z,15.18
2023-05-23T03:59:37.204Z,15.16
2023-05-23T04:04:39.722Z,15.19
2023-05-23T04:09:42.577Z,15.22
2023-05-23T04:14:45.461Z,15.25
2023-05-23T04:19:48.088Z,15.49
2023-05-23T04:24:50.529Z,15.68
2023-05-23T04:29:52.908Z,15.90
2023-05-23T04:34:56.769Z,15.98
2023-05-23T04:40:00.065Z,15.96
2023-05-23T04:45:04.080Z,15.94
2023-05-23T04:50:06.879Z,16.04
2023-05-23T04:55:10.179Z,16.10
2023-05-23T05:00:12.809Z,16.27
2023-05-23T05:05:15.614Z,16.30
2023-05-23T05:10:17.973Z,16.43
2023-05-23T05:15:20.378Z,16.84
2023-05-23T05:20:22.825Z,17.30
2023-05-23T05:25:25.198Z,17.36
2023-05-23T05:30:27.715Z,17.26
2023-05-23T05:35:30.089Z,18.13
2023-05-23T05:40:32.624Z,18.89
2023-05-23T05:45:34.940Z,18.62
2023-05-23T05:50:37.575Z,18.94
2023-05-23T05:55:39.926Z,18.94
2023-05-23T06:00:43.617Z,18.74
2023-05-23T06:05:45.954Z,19.15
2023-05-23T06:10:48.420Z,19.92
2023-05-23T06:15:50.964Z,20.02
2023-05-23T06:20:53.818Z,19.57
2023-05-23T06:25:56.315Z,18.82
2023-05-23T06:30:58.619Z,19.07
2023-05-23T06:36:00.963Z,19.61
2023-05-23T06:41:04.019Z,20.05
2023-05-23T06:46:06.825Z,20.06
2023-05-23T06:51:10.510Z,19.92
2023-05-23T06:56:12.909Z,20.02
2023-05-23T07:01:15.497Z,19.78
2023-05-23T07:06:18.182Z,20.39
2023-05-23T07:11:20.931Z,21.01
2023-05-23T07:16:23.390Z,21.35
2023-05-23T07:21:25.748Z,20.59
2023-05-23T07:26:28.430Z,20.26
2023-05-23T07:31:30.881Z,19.52
2023-05-23T07:36:35.743Z,20.05
2023-05-23T07:41:38.472Z,20.73
2023-05-23T07:46:40.886Z,20.46
2023-05-23T07:51:43.626Z,20.46
2023-05-23T07:56:45.953Z,21.12
2023-05-23T08:01:50.500Z,20.03
2023-05-23T08:07:04.984Z,19.63
2023-05-23T08:12:08.394Z,20.02
2023-05-23T08:17:10.845Z,19.96
2023-05-23T08:22:13.236Z,20.41
2023-05-23T08:27:15.613Z,20.06
2023-05-23T08:32:18.222Z,20.49
2023-05-23T08:37:20.690Z,21.01
2023-05-23T08:42:23.192Z,21.14
2023-05-23T08:47:25.618Z,21.33
2023-05-23T08:52:28.134Z,21.61
2023-05-23T08:57:31.031Z,20.80
2023-05-23T09:02:33.494Z,21.03
2023-05-23T09:07:35.959Z,21.53
2023-05-23T09:12:38.415Z,21.98
2023-05-23T09:17:40.846Z,21.48
2023-05-23T09:22:43.377Z,21.67
2023-05-23T09:27:48.136Z,21.64
2023-05-23T09:32:50.939Z,21.61
2023-05-23T09:37:56.099Z,21.45
2023-05-23T09:42:58.523Z,21.54
2023-05-23T09:48:01.686Z,20.93
2023-05-23T09:53:04.163Z,20.10
2023-05-23T09:58:06.543Z,19.97
2023-05-23T10:03:10.621Z,19.89
2023-05-23T10:08:13.024Z,20.10
2023-05-23T10:13:15.385Z,19.83
2023-05-23T10:18:18.031Z,20.30
2023-05-23T10:23:20.354Z,20.57
2023-05-23T10:28:22.934Z,20.83
2023-05-23T10:33:25.266Z,22.19
2023-05-23T10:38:27.940Z,21.85
2023-05-23T10:43:30.281Z,20.69
2023-05-23T10:48:33.773Z,20.34
2023-05-23T10:53:36.120Z,22.24
2023-05-23T10:58:38.481Z,22.31
2023-05-23T11:03:40.878Z,22.26
2023-05-23T11:08:48.834Z,22.82
2023-05-23T11:13:51.588Z,23.95
2023-05-23T11:18:54.096Z,23.58
2023-05-23T11:23:56.763Z,23.04
2023-05-23T11:28:59.188Z,23.32
2023-05-23T11:34:01.504Z,23.88
2023-05-23T11:39:04.377Z,22.93
2023-05-23T11:44:07.481Z,23.46
2023-05-23T11:49:11.573Z,23.58
2023-05-23T11:54:13.947Z,23.10
2023-05-23T11:59:16.819Z,23.47
2023-05-23T12:04:19.665Z,23.91
2023-05-23T12:09:22.466Z,23.76
2023-05-23T12:14:25.175Z,22.53
2023-05-23T12:19:28.162Z,22.69
2023-05-23T12:24:30.618Z,23.45
2023-05-23T12:29:34.836Z,23.23
2023-05-23T12:34:37.772Z,22.22
2023-05-23T12:39:40.332Z,21.85
2023-05-23T12:44:43.607Z,22.48
2023-05-23T12:49:46.885Z,22.58
2023-05-23T12:54:49.255Z,23.85
2023-05-23T12:59:51.632Z,22.11
2023-05-23T13:04:54.035Z,21.27
2023-05-23T13:09:56.424Z,21.53
2023-05-23T13:14:59.006Z,21.84
2023-05-23T13:20:02.086Z,22.22
2023-05-23T13:25:04.722Z,21.93
2023-05-23T13:30:07.199Z,22.02
2023-05-23T13:35:09.899Z,21.95
2023-05-23T13:40:12.308Z,22.81
2023-05-23T13:45:14.686Z,22.96
2023-05-23T13:50:17.396Z,22.41
2023-05-23T13:55:19.831Z,21.96
2023-05-23T14:00:22.680Z,22.73
2023-05-23T14:05:25.412Z,22.98
2023-05-23T14:10:29.386Z,22.92
2023-05-23T14:15:34.393Z,22.54
2023-05-23T14:20:37.106Z,22.72
2023-05-23T14:25:39.605Z,21.87
2023-05-23T14:30:42.116Z,22.12
2023-05-23T14:35:44.560Z,22.52
2023-05-23T14:40:47.178Z,22.30
2023-05-23T14:45:49.566Z,21.66
2023-05-23T14:50:51.972Z,21.23
2023-05-23T14:55:54.360Z,20.90
2023-05-23T15:00:56.691Z,21.36
2023-05-23T15:05:59.150Z,21.69
2023-05-23T15:11:01.496Z,22.18
2023-05-23T15:16:04.101Z,21.57
2023-05-23T15:21:06.452Z,21.04
2023-05-23T15:26:08.866Z,20.96
2023-05-23T15:31:11.228Z,20.79
2023-05-23T15:36:14.420Z,21.02
2023-05-23T15:41:16.785Z,20.71
2023-05-23T15:46:19.192Z,20.70
2023-05-23T15:51:21.616Z,20.84
2023-05-23T15:56:23.985Z,20.91
2023-05-23T16:01:26.367Z,20.99
2023-05-23T16:06:29.087Z,20.56
2023-05-23T16:11:31.458Z,21.03
2023-05-23T16:16:33.896Z,20.62
2023-05-23T16:21:36.609Z,20.25
2023-05-23T16:26:39.586Z,20.28
2023-05-23T16:31:42.043Z,19.85
2023-05-23T16:36:44.916Z,19.84
2023-05-23T16:41:47.344Z,19.52
2023-05-23T16:46:49.782Z,19.12
2023-05-23T16:51:52.297Z,18.95
2023-05-23T16:56:54.739Z,18.92
2023-05-23T17:01:57.375Z,18.82
2023-05-23T17:06:59.798Z,18.46
2023-05-23T17:12:02.914Z,18.18
2023-05-23T17:17:05.433Z,18.40
2023-05-23T17:22:08.093Z,18.32
2023-05-23T17:27:10.519Z,17.97
2023-05-23T17:32:13.116Z,17.84
2023-05-23T17:37:16.545Z,17.81
2023-05-23T17:42:18.987Z,17.58
2023-05-23T17:47:21.979Z,17.53
2023-05-23T17:52:24.480Z,17.51
2023-05-23T17:57:26.846Z,17.42
2023-05-23T18:02:29.224Z,17.56
2023-05-23T18:07:32.388Z,17.54
2023-05-23T18:12:34.752Z,17.35
2023-05-23T18:17:37.351Z,17.42
2023-05-23T18:22:41.305Z,17.22
2023-05-23T18:27:43.848Z,17.07
2023-05-23T18:32:47.242Z,17.10
2023-05-23T18:37:49.685Z,17.07
2023-05-23T18:42:52.195Z,16.93
2023-05-23T18:47:54.880Z,16.95
2023-05-23T18:52:57.565Z,16.93
2023-05-23T18:58:00.127Z,16.84
2023-05-23T19:03:02.978Z,16.69
2023-05-23T19:08:05.779Z,16.65
2023-05-23T19:13:08.124Z,16.54
2023-05-23T19:18:10.602Z,16.46
2023-05-23T19:23:13.052Z,16.37
2023-05-23T19:28:16.265Z,16.25
2023-05-23T19:33:18.595Z,16.11
2023-05-23T19:38:21.172Z,15.94
2023-05-23T19:43:23.721Z,15.91
2023-05-23T19:48:26.504Z,15.80
2023-05-23T19:53:28.959Z,15.67
2023-05-23T19:58:31.377Z,15.53
2023-05-23T20:03:34.095Z,15.58
2023-05-23T20:08:36.493Z,15.44
2023-05-23T20:13:39.216Z,15.35
2023-05-23T20:18:41.571Z,15.30
2023-05-23T20:23:45.171Z,15.24
2023-05-23T20:28:47.604Z,15.20
2023-05-23T20:33:50.016Z,15.12
2023-05-23T20:38:53.505Z,15.10
2023-05-23T20:43:55.923Z,14.99
2023-05-23T20:48:59.409Z,14.95
2023-05-23T20:54:03.187Z,14.95
2023-05-23T20:59:05.538Z,14.82
2023-05-23T21:04:07.910Z,14.63
2023-05-23T21:09:11.454Z,14.53
2023-05-23T21:14:13.906Z,14.40
2023-05-23T21:19:16.290Z,14.23
2023-05-23T21:24:18.621Z,14.14
2023-05-23T21:29:20.970Z,14.11
2023-05-23T21:34:24.438Z,13.97
2023-05-23T21:39:36.069Z,13.89
2023-05-23T21:44:45.961Z,13.77
2023-05-23T21:49:48.382Z,13.66
2023-05-23T21:54:51.568Z,13.61
2023-05-23T21:59:54.027Z,13.43
2023-05-23T22:04:56.379Z,13.30
2023-05-23T22:09:58.760Z,13.18
2023-05-23T22:15:01.161Z,13.16
2023-05-23T22:20:05.026Z,13.24
2023-05-23T22:25:07.987Z,13.14
2023-05-23T22:30:10.325Z,13.08
2023-05-23T22:35:12.800Z,13.04
2023-05-23T22:40:15.156Z,12.96
2023-05-23T22:45:17.509Z,12.92
2023-05-23T22:50:19.851Z,12.81
2023-05-23T22:55:22.157Z,12.82
2023-05-23T23:00:24.564Z,12.83
2023-05-23T23:05:27.463Z,12.80
2023-05-23T23:10:30.160Z,12.65
2023-05-23T23:15:33.971Z,12.58
2023-05-23T23:20:36.690Z,12.43
2023-05-23T23:25:40.229Z,12.35
2023-05-23T23:30:43.746Z,12.33
2023-05-23T23:35:48.520Z,12.15
2023-05-23T23:40:51.296Z,12.22
2023-05-23T23:45:53.739Z,12.24
2023-05-23T23:50:56.073Z,12.21
2023-05-23T23:55:58.391Z,12.28
